Terminal Aerodrome Forecast
Issued by NWS

Home | Current Version | Previous Version | Graphics & Text | Print | Product List | Glossary On
Versions: 1 2 3 4 5 6 7 8 9 10 11 12
000
FTUS43 KIWX 311700
TAFSBN
TAF
KSBN 311720Z 3118/0118 03012KT P6SM OVC015
     FM311930 04012KT P6SM BKN020 OVC030
     FM010300 04008KT P6SM BKN035=

USA.gov is the U.S. government's official web portal to all federal, state and local government web resources and services.